Ardenhurst, Minnesota
Current Conditions -  °F | °C
As of 12:33 PM on Sunday 23 Nov 2014 (Local Time) from KFOZ Reporting Station
Haze Haze  
Wind Chill: 37°   Ceiling: 600
Heat Index: 37°   Visibility: 5mi
Dew Point: 34°   Wind: 3mph
Humidity: 87%   Direction: 210°SSW
Pressure: 29.39"   Gusts: NA
Location:  47.8312°N, 94.1459°W
Report Text: KFOZ 231833Z AUTO 21003KT 5SM BR OVC006 03/01 A2939 RMK AO2
Loading
Personal Weather Stations






























Interactive Weather Map New forecast layout! Learn more

10-Day Weather Forecast

Advertisements
Track Severe Weather on mobile